createdAt,value
2023-01-12T00:00:05.104Z,2
2023-01-12T00:05:05.097Z,2.3
2023-01-12T00:10:05.090Z,2.3
2023-01-12T00:15:05.091Z,2.3
2023-01-12T00:20:05.091Z,2.1
2023-01-12T00:25:05.102Z,2.6
2023-01-12T00:30:05.091Z,2.6
2023-01-12T00:35:05.097Z,2.4
2023-01-12T00:40:05.084Z,2.3
2023-01-12T00:45:05.093Z,2.6
2023-01-12T00:50:05.092Z,2.3
2023-01-12T00:55:05.114Z,3.5
2023-01-12T01:00:05.090Z,3.5
2023-01-12T01:05:05.095Z,2.6
2023-01-12T01:10:05.088Z,2.5
2023-01-12T01:15:05.118Z,2.4
2023-01-12T01:20:05.104Z,1.6
2023-01-12T01:25:05.096Z,2.2
2023-01-12T01:30:05.099Z,2.2
2023-01-12T01:35:05.173Z,2.2
2023-01-12T01:40:05.082Z,2.7
2023-01-12T01:45:05.151Z,2.3
2023-01-12T01:50:05.085Z,1.9
2023-01-12T01:55:05.085Z,2.2
2023-01-12T02:00:05.087Z,2.2
2023-01-12T02:05:05.088Z,1.9
2023-01-12T02:10:05.090Z,2.2
2023-01-12T02:15:05.106Z,2
2023-01-12T02:20:05.136Z,2.9
2023-01-12T02:25:05.102Z,2
2023-01-12T02:30:05.112Z,2
2023-01-12T02:35:05.113Z,2.1
2023-01-12T02:40:05.101Z,3.1
2023-01-12T02:45:05.096Z,2.1
2023-01-12T02:50:05.111Z,3.3
2023-01-12T02:55:05.091Z,2.2
2023-01-12T03:00:05.088Z,2.2
2023-01-12T03:05:05.087Z,2
2023-01-12T03:10:05.082Z,2.7
2023-01-12T03:15:05.096Z,2.2
2023-01-12T03:20:05.091Z,2.3
2023-01-12T03:25:05.089Z,1.9
2023-01-12T03:30:05.086Z,1.9
2023-01-12T03:35:05.098Z,1.9
2023-01-12T03:40:05.083Z,2.6
2023-01-12T03:45:05.082Z,1.7
2023-01-12T03:50:05.096Z,2.4
2023-01-12T03:55:05.093Z,2.1
2023-01-12T04:00:05.087Z,2.1
2023-01-12T04:05:05.096Z,2.1
2023-01-12T04:10:05.091Z,2.1
2023-01-12T04:15:05.089Z,2.3
2023-01-12T04:20:05.084Z,3
2023-01-12T04:25:05.100Z,2.2
2023-01-12T04:30:05.104Z,2.2
2023-01-12T04:35:05.086Z,2.1
2023-01-12T04:40:05.086Z,1.8
2023-01-12T04:45:05.107Z,2.8
2023-01-12T04:50:05.089Z,2.7
2023-01-12T04:55:05.097Z,2.2
2023-01-12T05:00:05.090Z,2.2
2023-01-12T05:05:05.099Z,1.8
2023-01-12T05:10:05.106Z,2.6
2023-01-12T05:15:05.094Z,2.7
2023-01-12T05:20:05.087Z,2.1
2023-01-12T05:25:05.099Z,2
2023-01-12T05:30:05.091Z,2
2023-01-12T05:35:05.099Z,2
2023-01-12T05:40:05.105Z,2.1
2023-01-12T05:45:05.112Z,2.3
2023-01-12T05:50:05.093Z,2.3
2023-01-12T05:55:05.108Z,1.9
2023-01-12T06:00:05.098Z,1.9
2023-01-12T06:05:05.090Z,2.6
2023-01-12T06:10:05.090Z,2.1
2023-01-12T06:15:05.095Z,2.3
2023-01-12T06:20:05.086Z,2
2023-01-12T06:25:05.094Z,2.2
2023-01-12T06:30:05.083Z,2.2
2023-01-12T06:35:14.292Z,2.1
2023-01-12T06:40:05.086Z,1.8
2023-01-12T06:45:05.091Z,1.9
2023-01-12T06:50:05.082Z,1.8
2023-01-12T06:55:05.077Z,2.3
2023-01-12T07:00:05.093Z,2.3
2023-01-12T07:05:05.101Z,2.4
2023-01-12T07:10:05.099Z,2
2023-01-12T07:15:05.087Z,3
2023-01-12T07:20:05.099Z,2.5
2023-01-12T07:25:05.094Z,1.9
2023-01-12T07:30:05.078Z,1.9
2023-01-12T07:35:05.089Z,1.9
2023-01-12T07:40:05.087Z,2
2023-01-12T07:45:05.086Z,2
2023-01-12T07:50:05.085Z,3.1
2023-01-12T07:55:05.087Z,1.9
2023-01-12T08:00:05.088Z,1.9
2023-01-12T08:05:05.084Z,2
2023-01-12T08:10:05.082Z,2.2
2023-01-12T08:15:05.084Z,2.1
2023-01-12T08:20:05.085Z,1.4
2023-01-12T08:25:05.084Z,1.6
2023-01-12T08:30:05.085Z,1.6
2023-01-12T08:35:05.090Z,1.3
2023-01-12T08:40:05.084Z,2.3
2023-01-12T08:45:05.083Z,1.4
2023-01-12T08:50:05.145Z,2
2023-01-12T08:55:05.090Z,2.1
2023-01-12T09:00:05.088Z,2.1
2023-01-12T09:05:05.089Z,2
2023-01-12T09:10:05.084Z,1.8
2023-01-12T09:15:05.080Z,1.7
2023-01-12T09:20:05.088Z,2.9
2023-01-12T09:25:05.087Z,2.4
2023-01-12T09:30:05.080Z,2.4
2023-01-12T09:35:05.081Z,1.8
2023-01-12T09:40:05.076Z,2.8
2023-01-12T09:45:05.078Z,1.9
2023-01-12T09:50:08.982Z,1.6
2023-01-12T09:55:05.088Z,2
2023-01-12T10:00:05.080Z,2
2023-01-12T10:05:05.083Z,1.6
2023-01-12T10:10:05.097Z,1.8
2023-01-12T10:15:05.083Z,1.8
2023-01-12T10:20:05.078Z,1.5
2023-01-12T10:25:05.344Z,1.7
2023-01-12T10:30:05.086Z,1.7
2023-01-12T10:35:05.090Z,1.9
2023-01-12T10:40:05.081Z,1.6
2023-01-12T10:45:05.099Z,1.3
2023-01-12T10:50:05.080Z,1.5
2023-01-12T10:55:05.084Z,1.6
2023-01-12T11:00:05.088Z,1.6
2023-01-12T11:05:05.089Z,1.5
2023-01-12T11:10:05.090Z,1.5
2023-01-12T11:15:05.097Z,1.6
2023-01-12T11:20:05.086Z,2.2
2023-01-12T11:25:05.090Z,2.2
2023-01-12T11:30:05.092Z,2.2
2023-01-12T11:35:05.098Z,1.6
2023-01-12T11:40:05.083Z,1.3
2023-01-12T11:45:05.094Z,1.3
2023-01-12T11:50:05.099Z,1.4
2023-01-12T11:55:05.088Z,1.3
2023-01-12T12:00:05.092Z,1.3
2023-01-12T12:05:05.097Z,1.4
2023-01-12T12:10:05.098Z,1.7
2023-01-12T12:15:05.092Z,1.1
2023-01-12T12:20:05.088Z,1.4
2023-01-12T12:25:05.084Z,1.7
2023-01-12T12:30:05.087Z,1.7
2023-01-12T12:35:05.079Z,1.1
2023-01-12T12:40:05.104Z,1.4
2023-01-12T12:45:05.085Z,1.1
2023-01-12T12:50:05.084Z,1.3
2023-01-12T12:55:05.086Z,1.1
2023-01-12T13:00:05.113Z,1.1
2023-01-12T13:05:05.541Z,1.6
2023-01-12T13:10:05.088Z,1.3
2023-01-12T13:15:05.085Z,1.9
2023-01-12T13:20:13.655Z,1.3
2023-01-12T13:25:05.086Z,1.1
2023-01-12T13:30:05.093Z,1.1
2023-01-12T13:35:05.089Z,1.2
2023-01-12T13:40:05.084Z,1
2023-01-12T13:45:05.086Z,1.1
2023-01-12T13:50:05.089Z,1.4
2023-01-12T13:55:05.089Z,1.2
2023-01-12T14:00:05.082Z,1.2
2023-01-12T14:05:05.089Z,0.9
2023-01-12T14:10:05.081Z,1
2023-01-12T14:15:05.091Z,1.1
2023-01-12T14:20:05.081Z,1
2023-01-12T14:25:05.093Z,0.8
2023-01-12T14:30:05.090Z,0.8
2023-01-12T14:35:05.089Z,1.1
2023-01-12T14:40:05.079Z,0.7
2023-01-12T14:45:05.083Z,0.8
2023-01-12T14:50:05.088Z,0.8
2023-01-12T14:55:05.094Z,0.8
2023-01-12T15:00:05.109Z,0.8
2023-01-12T15:05:05.088Z,1.4
2023-01-12T15:10:05.219Z,1
2023-01-12T15:15:05.311Z,1
2023-01-12T15:20:05.116Z,1.1
2023-01-12T15:25:05.088Z,1.6
2023-01-12T15:30:05.087Z,1.6
2023-01-12T15:35:05.111Z,0.9
2023-01-12T15:40:05.082Z,1.4
2023-01-12T15:45:05.096Z,1
2023-01-12T15:50:05.092Z,0.9
2023-01-12T15:55:05.086Z,0.8
2023-01-12T16:00:05.100Z,0.8
2023-01-12T16:05:05.131Z,1
2023-01-12T16:10:05.086Z,0.7
2023-01-12T16:15:05.084Z,0.9
2023-01-12T16:20:05.283Z,0.9
2023-01-12T16:25:05.086Z,0.9
2023-01-12T16:30:05.087Z,0.9
2023-01-12T16:35:05.088Z,1.2
2023-01-12T16:40:05.085Z,1.1
2023-01-12T16:45:05.091Z,1.1
2023-01-12T16:50:05.080Z,1.3
2023-01-12T16:55:05.091Z,1.1
2023-01-12T17:00:05.081Z,1.1
2023-01-12T17:05:05.101Z,1.6
2023-01-12T17:10:05.084Z,1.1
2023-01-12T17:15:05.080Z,1
2023-01-12T17:20:05.081Z,1.1
2023-01-12T17:25:05.084Z,1.1
2023-01-12T17:30:05.084Z,1.1
2023-01-12T17:35:05.098Z,1
2023-01-12T17:40:05.083Z,1.2
2023-01-12T17:45:05.092Z,1
2023-01-12T17:50:05.101Z,1
2023-01-12T17:55:05.095Z,1.2
2023-01-12T18:00:05.126Z,1.2
2023-01-12T18:05:05.087Z,1.1
2023-01-12T18:10:05.090Z,1.3
2023-01-12T18:15:05.087Z,1
2023-01-12T18:20:05.079Z,1.1
2023-01-12T18:25:05.087Z,1
2023-01-12T18:30:05.093Z,1
2023-01-12T18:35:05.082Z,0.7
2023-01-12T18:40:05.088Z,1
2023-01-12T18:45:05.085Z,1.3
2023-01-12T18:50:05.079Z,1.1
2023-01-12T18:55:05.085Z,1
2023-01-12T19:00:05.097Z,1
2023-01-12T19:05:05.093Z,1.1
2023-01-12T19:10:05.102Z,1.1
2023-01-12T19:15:05.087Z,1.1
2023-01-12T19:20:05.092Z,1
2023-01-12T19:25:05.083Z,1.2
2023-01-12T19:30:05.090Z,1.2
2023-01-12T19:35:11.142Z,1
2023-01-12T19:40:05.086Z,1.3
2023-01-12T19:45:05.090Z,0.9
2023-01-12T19:50:05.091Z,0.9
2023-01-12T19:55:05.084Z,1.1
2023-01-12T20:00:05.081Z,1.1
2023-01-12T20:05:05.097Z,1.1
2023-01-12T20:10:05.091Z,1.2
2023-01-12T20:15:05.099Z,1.5
2023-01-12T20:20:05.090Z,1.2
2023-01-12T20:25:05.108Z,0.9
2023-01-12T20:30:05.092Z,0.9
2023-01-12T20:35:05.094Z,1
2023-01-12T20:40:05.087Z,0.8
2023-01-12T20:45:05.087Z,0.8
2023-01-12T20:50:05.097Z,0.9
2023-01-12T20:55:05.094Z,0.8
2023-01-12T21:00:05.098Z,0.8
2023-01-12T21:05:05.091Z,1
2023-01-12T21:10:05.098Z,0.8
2023-01-12T21:15:05.090Z,0.9
2023-01-12T21:20:05.084Z,0.9
2023-01-12T21:25:05.096Z,1
2023-01-12T21:30:05.091Z,1
2023-01-12T21:35:05.086Z,0.8
2023-01-12T21:40:05.215Z,0.9
2023-01-12T21:45:05.086Z,0.9
2023-01-12T21:50:05.078Z,0.9
2023-01-12T21:55:05.105Z,0.9
2023-01-12T22:00:05.084Z,0.9
2023-01-12T22:05:05.098Z,0.8
2023-01-12T22:10:05.087Z,0.9
2023-01-12T22:15:05.096Z,1.1
2023-01-12T22:20:05.082Z,0.9
2023-01-12T22:25:05.090Z,0.8
2023-01-12T22:30:05.094Z,0.8
2023-01-12T22:35:05.102Z,0.9
2023-01-12T22:40:05.079Z,0.9
2023-01-12T22:45:05.087Z,0.8
2023-01-12T22:50:05.095Z,1.1
2023-01-12T22:55:05.086Z,0.8
2023-01-12T23:00:05.095Z,0.8
2023-01-12T23:05:05.154Z,1
2023-01-12T23:10:05.152Z,1.1
2023-01-12T23:15:05.147Z,1
2023-01-12T23:20:05.135Z,0.7
2023-01-12T23:25:05.143Z,1
2023-01-12T23:30:05.144Z,1
2023-01-12T23:35:05.145Z,1
2023-01-12T23:40:05.147Z,1.2
2023-01-12T23:45:05.148Z,1
2023-01-12T23:50:05.136Z,1.1
2023-01-12T23:55:05.143Z,1.2
